sensor_id;sensor_type;location;lat;lon;timestamp;temperature;humidity
16060;DHT22;8134;49.552;7.632;2024-03-02T00:04:01;4.60;99.90
16060;DHT22;8134;49.552;7.632;2024-03-02T00:06:36;4.60;99.90
16060;DHT22;8134;49.552;7.632;2024-03-02T00:09:07;4.60;99.90
16060;DHT22;8134;49.552;7.632;2024-03-02T00:12:01;4.80;99.90
16060;DHT22;8134;49.552;7.632;2024-03-02T00:20:53;4.50;99.90
16060;DHT22;8134;49.552;7.632;2024-03-02T00:23:41;4.40;99.90
16060;DHT22;8134;49.552;7.632;2024-03-02T00:26:32;4.60;99.90
16060;DHT22;8134;49.552;7.632;2024-03-02T00:35:18;4.50;99.90
16060;DHT22;8134;49.552;7.632;2024-03-02T00:37:52;4.40;99.90
16060;DHT22;8134;49.552;7.632;2024-03-02T00:40:30;4.40;99.90
16060;DHT22;8134;49.552;7.632;2024-03-02T00:46:06;4.40;99.90
16060;DHT22;8134;49.552;7.632;2024-03-02T00:48:37;4.40;99.90
16060;DHT22;8134;49.552;7.632;2024-03-02T00:57:15;4.40;99.90
16060;DHT22;8134;49.552;7.632;2024-03-02T00:59:53;4.30;99.90
16060;DHT22;8134;49.552;7.632;2024-03-02T01:02:36;4.30;99.90
16060;DHT22;8134;49.552;7.632;2024-03-02T01:11:19;4.30;99.90
16060;DHT22;8134;49.552;7.632;2024-03-02T01:13:53;4.20;99.90
16060;DHT22;8134;49.552;7.632;2024-03-02T01:16:22;4.20;99.90
16060;DHT22;8134;49.552;7.632;2024-03-02T01:18:48;4.20;99.90
16060;DHT22;8134;49.552;7.632;2024-03-02T01:21:19;4.20;99.90
16060;DHT22;8134;49.552;7.632;2024-03-02T01:23:48;4.10;99.90
16060;DHT22;8134;49.552;7.632;2024-03-02T01:29:27;4.10;99.90
16060;DHT22;8134;49.552;7.632;2024-03-02T01:31:53;4.10;99.90
16060;DHT22;8134;49.552;7.632;2024-03-02T01:34:19;4.30;99.90
16060;DHT22;8134;49.552;7.632;2024-03-02T01:39:32;4.00;99.90
16060;DHT22;8134;49.552;7.632;2024-03-02T01:50:45;3.90;99.90
16060;DHT22;8134;49.552;7.632;2024-03-02T01:53:32;3.90;99.90
16060;DHT22;8134;49.552;7.632;2024-03-02T01:56:09;3.90;99.90
16060;DHT22;8134;49.552;7.632;2024-03-02T01:58:43;3.90;99.90
16060;DHT22;8134;49.552;7.632;2024-03-02T02:03:52;3.80;99.90
16060;DHT22;8134;49.552;7.632;2024-03-02T02:09:20;4.00;99.90
16060;DHT22;8134;49.552;7.632;2024-03-02T02:11:55;3.80;99.90
16060;DHT22;8134;49.552;7.632;2024-03-02T02:14:32;3.80;99.90
16060;DHT22;8134;49.552;7.632;2024-03-02T02:17:17;3.80;99.90
16060;DHT22;8134;49.552;7.632;2024-03-02T02:20:06;3.90;99.90
16060;DHT22;8134;49.552;7.632;2024-03-02T02:28:11;3.80;99.90
16060;DHT22;8134;49.552;7.632;2024-03-02T02:30:39;3.90;99.90
16060;DHT22;8134;49.552;7.632;2024-03-02T02:33:13;3.90;99.90
16060;DHT22;8134;49.552;7.632;2024-03-02T02:35:45;3.90;99.90
16060;DHT22;8134;49.552;7.632;2024-03-02T02:46:52;4.00;99.90
16060;DHT22;8134;49.552;7.632;2024-03-02T02:49:27;4.00;99.90
16060;DHT22;8134;49.552;7.632;2024-03-02T02:52:06;4.00;99.90
16060;DHT22;8134;49.552;7.632;2024-03-02T02:54:55;3.90;99.90
16060;DHT22;8134;49.552;7.632;2024-03-02T02:57:28;4.00;99.90
16060;DHT22;8134;49.552;7.632;2024-03-02T03:06:01;4.20;99.90
16060;DHT22;8134;49.552;7.632;2024-03-02T03:08:37;4.20;99.90
16060;DHT22;8134;49.552;7.632;2024-03-02T03:11:08;4.20;99.90
16060;DHT22;8134;49.552;7.632;2024-03-02T03:14:06;4.20;99.90
16060;DHT22;8134;49.552;7.632;2024-03-02T03:16:48;4.20;99.90
16060;DHT22;8134;49.552;7.632;2024-03-02T03:19:41;4.20;99.90
16060;DHT22;8134;49.552;7.632;2024-03-02T03:25:44;4.10;99.90
16060;DHT22;8134;49.552;7.632;2024-03-02T03:28:19;4.10;99.90
16060;DHT22;8134;49.552;7.632;2024-03-02T03:31:03;4.00;99.90
16060;DHT22;8134;49.552;7.632;2024-03-02T03:36:15;3.90;99.90
16060;DHT22;8134;49.552;7.632;2024-03-02T03:41:53;3.90;99.90
16060;DHT22;8134;49.552;7.632;2024-03-02T03:44:27;3.90;99.90
16060;DHT22;8134;49.552;7.632;2024-03-02T03:49:57;4.00;99.90
16060;DHT22;8134;49.552;7.632;2024-03-02T03:52:25;4.10;99.90
16060;DHT22;8134;49.552;7.632;2024-03-02T03:54:53;4.10;99.90
16060;DHT22;8134;49.552;7.632;2024-03-02T04:03:28;4.20;99.90
16060;DHT22;8134;49.552;7.632;2024-03-02T04:05:53;4.30;99.90
16060;DHT22;8134;49.552;7.632;2024-03-02T04:08:19;4.20;99.90
16060;DHT22;8134;49.552;7.632;2024-03-02T04:10:52;4.30;99.90
16060;DHT22;8134;49.552;7.632;2024-03-02T04:13:17;4.30;99.90
16060;DHT22;8134;49.552;7.632;2024-03-02T04:15:43;4.30;99.90
16060;DHT22;8134;49.552;7.632;2024-03-02T04:26:53;4.30;99.90
16060;DHT22;8134;49.552;7.632;2024-03-02T04:29:36;4.40;99.90
16060;DHT22;8134;49.552;7.632;2024-03-02T04:41:18;4.50;99.90
16060;DHT22;8134;49.552;7.632;2024-03-02T04:55:40;4.50;99.90
16060;DHT22;8134;49.552;7.632;2024-03-02T05:02:03;4.50;99.90
16060;DHT22;8134;49.552;7.632;2024-03-02T05:23:56;4.80;99.90
16060;DHT22;8134;49.552;7.632;2024-03-02T05:35:55;4.90;99.90
16060;DHT22;8134;49.552;7.632;2024-03-02T08:41:49;7.00;99.90
16060;DHT22;8134;49.552;7.632;2024-03-02T08:44:17;7.10;99.90
16060;DHT22;8134;49.552;7.632;2024-03-02T08:52:36;7.30;99.90
16060;DHT22;8134;49.552;7.632;2024-03-02T09:04:31;7.70;99.90
16060;DHT22;8134;49.552;7.632;2024-03-02T09:07:49;7.70;99.90
16060;DHT22;8134;49.552;7.632;2024-03-02T09:15:56;8.00;99.90
16060;DHT22;8134;49.552;7.632;2024-03-02T09:18:22;8.00;99.90
16060;DHT22;8134;49.552;7.632;2024-03-02T09:20:47;8.10;99.90
16060;DHT22;8134;49.552;7.632;2024-03-02T09:23:13;8.10;99.90
16060;DHT22;8134;49.552;7.632;2024-03-02T09:25:38;8.20;99.90
16060;DHT22;8134;49.552;7.632;2024-03-02T09:28:04;8.20;99.90
16060;DHT22;8134;49.552;7.632;2024-03-02T09:30:29;8.30;99.90
16060;DHT22;8134;49.552;7.632;2024-03-02T09:32:55;8.30;99.90
16060;DHT22;8134;49.552;7.632;2024-03-02T09:35:20;8.40;99.90
16060;DHT22;8134;49.552;7.632;2024-03-02T09:37:46;8.40;99.90
16060;DHT22;8134;49.552;7.632;2024-03-02T09:40:12;8.40;99.90
16060;DHT22;8134;49.552;7.632;2024-03-02T09:42:38;8.50;99.90
16060;DHT22;8134;49.552;7.632;2024-03-02T09:48:07;8.60;99.90
16060;DHT22;8134;49.552;7.632;2024-03-02T09:50:33;8.70;99.90
16060;DHT22;8134;49.552;7.632;2024-03-02T09:52:59;8.70;99.90
16060;DHT22;8134;49.552;7.632;2024-03-02T09:55:24;8.80;99.90
16060;DHT22;8134;49.552;7.632;2024-03-02T09:57:50;8.80;99.90
16060;DHT22;8134;49.552;7.632;2024-03-02T10:00:28;8.90;99.90
16060;DHT22;8134;49.552;7.632;2024-03-02T10:02:54;9.10;99.90
16060;DHT22;8134;49.552;7.632;2024-03-02T10:05:23;9.00;99.90
16060;DHT22;8134;49.552;7.632;2024-03-02T10:07:59;9.00;99.90
16060;DHT22;8134;49.552;7.632;2024-03-02T10:10:26;9.10;99.90
16060;DHT22;8134;49.552;7.632;2024-03-02T10:13:03;9.10;99.90
16060;DHT22;8134;49.552;7.632;2024-03-02T10:15:29;9.20;99.90
16060;DHT22;8134;49.552;7.632;2024-03-02T10:17:54;9.20;99.90
16060;DHT22;8134;49.552;7.632;2024-03-02T10:20:23;9.30;99.90
16060;DHT22;8134;49.552;7.632;2024-03-02T10:22:49;9.30;99.90
16060;DHT22;8134;49.552;7.632;2024-03-02T10:25:36;9.30;99.90
16060;DHT22;8134;49.552;7.632;2024-03-02T10:28:01;9.30;99.90
16060;DHT22;8134;49.552;7.632;2024-03-02T10:30:27;9.40;99.90
16060;DHT22;8134;49.552;7.632;2024-03-02T10:32:56;9.40;99.90
16060;DHT22;8134;49.552;7.632;2024-03-02T10:35:22;9.50;99.90
16060;DHT22;8134;49.552;7.632;2024-03-02T10:37:49;9.50;99.90
16060;DHT22;8134;49.552;7.632;2024-03-02T10:40:14;9.60;99.90
16060;DHT22;8134;49.552;7.632;2024-03-02T10:42:41;9.70;99.90
16060;DHT22;8134;49.552;7.632;2024-03-02T10:45:07;9.70;99.90
16060;DHT22;8134;49.552;7.632;2024-03-02T11:00:03;10.10;99.90
16060;DHT22;8134;49.552;7.632;2024-03-02T11:02:31;10.20;99.90
16060;DHT22;8134;49.552;7.632;2024-03-02T11:11:17;10.50;99.90
16060;DHT22;8134;49.552;7.632;2024-03-02T11:13:47;10.60;99.90
16060;DHT22;8134;49.552;7.632;2024-03-02T11:16:33;10.60;99.90
16060;DHT22;8134;49.552;7.632;2024-03-02T11:19:06;10.60;99.90
16060;DHT22;8134;49.552;7.632;2024-03-02T11:21:36;10.60;99.90
16060;DHT22;8134;49.552;7.632;2024-03-02T11:38:32;10.60;99.90
16060;DHT22;8134;49.552;7.632;2024-03-02T11:41:02;10.60;99.90
16060;DHT22;8134;49.552;7.632;2024-03-02T11:43:43;10.70;99.90
16060;DHT22;8134;49.552;7.632;2024-03-02T11:52:00;10.90;99.90
16060;DHT22;8134;49.552;7.632;2024-03-02T12:00:37;11.20;99.90
16060;DHT22;8134;49.552;7.632;2024-03-02T18:01:14;10.30;99.90
16060;DHT22;8134;49.552;7.632;2024-03-02T18:03:40;10.30;99.90
16060;DHT22;8134;49.552;7.632;2024-03-02T18:21:17;9.90;99.90
16060;DHT22;8134;49.552;7.632;2024-03-02T18:23:43;9.90;99.90
16060;DHT22;8134;49.552;7.632;2024-03-02T18:26:08;9.80;99.90
16060;DHT22;8134;49.552;7.632;2024-03-02T19:08:25;9.30;99.90
16060;DHT22;8134;49.552;7.632;2024-03-02T19:13:55;9.30;99.90
16060;DHT22;8134;49.552;7.632;2024-03-02T20:52:12;9.00;99.90
16060;DHT22;8134;49.552;7.632;2024-03-02T20:54:37;9.00;99.90
16060;DHT22;8134;49.552;7.632;2024-03-02T21:00:07;9.10;99.90
16060;DHT22;8134;49.552;7.632;2024-03-02T21:39:08;9.20;99.90
16060;DHT22;8134;49.552;7.632;2024-03-02T21:47:21;9.20;99.90
16060;DHT22;8134;49.552;7.632;2024-03-02T21:49:47;9.20;99.90
16060;DHT22;8134;49.552;7.632;2024-03-02T21:52:13;9.20;99.90
16060;DHT22;8134;49.552;7.632;2024-03-02T21:54:38;9.10;99.90
16060;DHT22;8134;49.552;7.632;2024-03-02T21:57:04;9.10;99.90
16060;DHT22;8134;49.552;7.632;2024-03-02T22:05:19;9.10;99.90
16060;DHT22;8134;49.552;7.632;2024-03-02T22:07:44;9.10;99.90
16060;DHT22;8134;49.552;7.632;2024-03-02T22:10:10;9.10;99.90
16060;DHT22;8134;49.552;7.632;2024-03-02T22:12:35;9.10;99.90
16060;DHT22;8134;49.552;7.632;2024-03-02T22:15:01;9.00;99.90
16060;DHT22;8134;49.552;7.632;2024-03-02T22:23:25;9.00;99.90
16060;DHT22;8134;49.552;7.632;2024-03-02T22:25:50;9.00;99.90
16060;DHT22;8134;49.552;7.632;2024-03-02T22:28:16;9.00;99.90
16060;DHT22;8134;49.552;7.632;2024-03-02T22:30:49;9.00;99.90
16060;DHT22;8134;49.552;7.632;2024-03-02T22:39:27;9.00;99.90
16060;DHT22;8134;49.552;7.632;2024-03-02T22:41:52;9.00;99.90
16060;DHT22;8134;49.552;7.632;2024-03-02T22:44:19;8.90;99.90
